sensor_id;sensor_type;location;lat;lon;timestamp;temperature;humidity
79497;SHT31;75160;53.138;18.020;2024-01-15T00:00:42;3.29;77.00
79497;SHT31;75160;53.138;18.020;2024-01-15T00:02:04;3.29;77.00
79497;SHT31;75160;53.138;18.020;2024-01-15T00:03:07;3.29;77.00
79497;SHT31;75160;53.138;18.020;2024-01-15T00:04:08;3.29;77.00
79497;SHT31;75160;53.138;18.020;2024-01-15T00:05:10;3.30;77.00
79497;SHT31;75160;53.138;18.020;2024-01-15T00:06:12;3.28;76.97
79497;SHT31;75160;53.138;18.020;2024-01-15T00:07:15;3.28;77.00
79497;SHT31;75160;53.138;18.020;2024-01-15T00:08:17;3.28;77.03
79497;SHT31;75160;53.138;18.020;2024-01-15T00:09:20;3.28;77.10
79497;SHT31;75160;53.138;18.020;2024-01-15T00:10:22;3.28;77.03
79497;SHT31;75160;53.138;18.020;2024-01-15T00:11:25;3.28;77.05
79497;SHT31;75160;53.138;18.020;2024-01-15T00:12:28;3.28;77.07
79497;SHT31;75160;53.138;18.020;2024-01-15T00:13:31;3.26;77.10
79497;SHT31;75160;53.138;18.020;2024-01-15T00:14:33;3.25;77.10
79497;SHT31;75160;53.138;18.020;2024-01-15T00:15:35;3.25;77.13
79497;SHT31;75160;53.138;18.020;2024-01-15T00:16:39;3.25;77.10
79497;SHT31;75160;53.138;18.020;2024-01-15T00:17:42;3.23;77.20
79497;SHT31;75160;53.138;18.020;2024-01-15T00:18:43;3.23;77.20
79497;SHT31;75160;53.138;18.020;2024-01-15T00:19:45;3.22;77.20
79497;SHT31;75160;53.138;18.020;2024-01-15T00:20:47;3.21;77.20
79497;SHT31;75160;53.138;18.020;2024-01-15T00:21:49;3.20;77.20
79497;SHT31;75160;53.138;18.020;2024-01-15T00:22:51;3.19;77.22
79497;SHT31;75160;53.138;18.020;2024-01-15T00:23:53;3.19;77.28
79497;SHT31;75160;53.138;18.020;2024-01-15T00:24:55;3.19;77.30
79497;SHT31;75160;53.138;18.020;2024-01-15T00:25:57;3.18;77.22
79497;SHT31;75160;53.138;18.020;2024-01-15T00:26:58;3.17;77.20
79497;SHT31;75160;53.138;18.020;2024-01-15T00:28:00;3.17;77.28
79497;SHT31;75160;53.138;18.020;2024-01-15T00:29:02;3.15;77.30
79497;SHT31;75160;53.138;18.020;2024-01-15T00:30:04;3.17;77.30
79497;SHT31;75160;53.138;18.020;2024-01-15T00:31:07;3.15;77.30
79497;SHT31;75160;53.138;18.020;2024-01-15T00:32:09;3.15;77.30
79497;SHT31;75160;53.138;18.020;2024-01-15T00:33:11;3.15;77.30
79497;SHT31;75160;53.138;18.020;2024-01-15T00:34:13;3.14;77.30
79497;SHT31;75160;53.138;18.020;2024-01-15T00:35:15;3.14;77.32
79497;SHT31;75160;53.138;18.020;2024-01-15T00:36:17;3.12;77.30
79497;SHT31;75160;53.138;18.020;2024-01-15T00:37:19;3.12;77.32
79497;SHT31;75160;53.138;18.020;2024-01-15T00:38:21;3.11;77.38
79497;SHT31;75160;53.138;18.020;2024-01-15T00:39:23;3.10;77.40
79497;SHT31;75160;53.138;18.020;2024-01-15T00:40:24;3.11;77.47
79497;SHT31;75160;53.138;18.020;2024-01-15T00:41:27;3.10;77.50
79497;SHT31;75160;53.138;18.020;2024-01-15T00:42:29;3.12;77.50
79497;SHT31;75160;53.138;18.020;2024-01-15T00:43:30;3.12;77.50
79497;SHT31;75160;53.138;18.020;2024-01-15T00:44:33;3.09;77.47
79497;SHT31;75160;53.138;18.020;2024-01-15T00:45:35;3.10;77.47
79497;SHT31;75160;53.138;18.020;2024-01-15T00:46:43;3.09;77.50
79497;SHT31;75160;53.138;18.020;2024-01-15T00:47:47;3.10;77.50
79497;SHT31;75160;53.138;18.020;2024-01-15T00:48:49;3.09;77.50
79497;SHT31;75160;53.138;18.020;2024-01-15T00:49:50;3.09;77.50
79497;SHT31;75160;53.138;18.020;2024-01-15T00:50:52;3.08;77.50
79497;SHT31;75160;53.138;18.020;2024-01-15T00:51:55;3.09;77.50
79497;SHT31;75160;53.138;18.020;2024-01-15T00:52:57;3.09;77.50
79497;SHT31;75160;53.138;18.020;2024-01-15T00:53:59;3.10;77.50
79497;SHT31;75160;53.138;18.020;2024-01-15T00:55:00;3.12;77.50
79497;SHT31;75160;53.138;18.020;2024-01-15T00:56:02;3.10;77.53
79497;SHT31;75160;53.138;18.020;2024-01-15T00:57:04;3.10;77.50
79497;SHT31;75160;53.138;18.020;2024-01-15T00:58:06;3.09;77.50
79497;SHT31;75160;53.138;18.020;2024-01-15T00:59:08;3.10;77.57
79497;SHT31;75160;53.138;18.020;2024-01-15T01:00:11;3.07;77.60
79497;SHT31;75160;53.138;18.020;2024-01-15T01:01:14;3.08;77.57
79497;SHT31;75160;53.138;18.020;2024-01-15T01:02:16;3.09;77.60
79497;SHT31;75160;53.138;18.020;2024-01-15T01:03:18;3.08;77.60
79497;SHT31;75160;53.138;18.020;2024-01-15T01:04:19;3.08;77.65
79497;SHT31;75160;53.138;18.020;2024-01-15T01:05:21;3.09;77.65
79497;SHT31;75160;53.138;18.020;2024-01-15T01:06:23;3.09;77.65
79497;SHT31;75160;53.138;18.020;2024-01-15T01:07:25;3.07;77.63
79497;SHT31;75160;53.138;18.020;2024-01-15T01:08:26;3.08;77.68
79497;SHT31;75160;53.138;18.020;2024-01-15T01:09:28;3.08;77.60
79497;SHT31;75160;53.138;18.020;2024-01-15T01:10:31;3.08;77.60
79497;SHT31;75160;53.138;18.020;2024-01-15T01:11:33;3.06;77.60
79497;SHT31;75160;53.138;18.020;2024-01-15T01:12:34;3.06;77.70
79497;SHT31;75160;53.138;18.020;2024-01-15T01:13:36;3.05;77.70
79497;SHT31;75160;53.138;18.020;2024-01-15T01:14:38;3.05;77.70
79497;SHT31;75160;53.138;18.020;2024-01-15T01:15:40;3.05;77.75
79497;SHT31;75160;53.138;18.020;2024-01-15T01:16:42;3.05;77.75
79497;SHT31;75160;53.138;18.020;2024-01-15T01:17:43;3.05;77.80
79497;SHT31;75160;53.138;18.020;2024-01-15T01:18:45;3.05;77.78
79497;SHT31;75160;53.138;18.020;2024-01-15T01:19:47;3.05;77.80
79497;SHT31;75160;53.138;18.020;2024-01-15T01:20:49;3.05;77.80
79497;SHT31;75160;53.138;18.020;2024-01-15T01:21:50;3.08;77.80
79497;SHT31;75160;53.138;18.020;2024-01-15T01:22:52;3.06;77.80
79497;SHT31;75160;53.138;18.020;2024-01-15T01:23:54;3.06;77.75
79497;SHT31;75160;53.138;18.020;2024-01-15T01:24:56;3.07;77.78
79497;SHT31;75160;53.138;18.020;2024-01-15T01:25:57;3.06;77.80
79497;SHT31;75160;53.138;18.020;2024-01-15T01:26:59;3.06;77.80
79497;SHT31;75160;53.138;18.020;2024-01-15T01:28:01;3.06;77.80
79497;SHT31;75160;53.138;18.020;2024-01-15T01:29:03;3.06;77.80
79497;SHT31;75160;53.138;18.020;2024-01-15T01:30:05;3.06;77.80
79497;SHT31;75160;53.138;18.020;2024-01-15T01:31:07;3.07;77.80
79497;SHT31;75160;53.138;18.020;2024-01-15T01:32:09;3.07;77.80
79497;SHT31;75160;53.138;18.020;2024-01-15T01:33:11;3.08;77.80
79497;SHT31;75160;53.138;18.020;2024-01-15T01:34:14;3.08;77.78
79497;SHT31;75160;53.138;18.020;2024-01-15T01:35:17;3.09;77.80
79497;SHT31;75160;53.138;18.020;2024-01-15T01:36:18;3.08;77.80
79497;SHT31;75160;53.138;18.020;2024-01-15T01:37:20;3.06;77.78
79497;SHT31;75160;53.138;18.020;2024-01-15T01:38:22;3.06;77.80
79497;SHT31;75160;53.138;18.020;2024-01-15T01:39:23;3.07;77.80
79497;SHT31;75160;53.138;18.020;2024-01-15T01:40:25;3.07;77.78
79497;SHT31;75160;53.138;18.020;2024-01-15T01:41:27;3.08;77.72
79497;SHT31;75160;53.138;18.020;2024-01-15T01:42:29;3.07;77.78
79497;SHT31;75160;53.138;18.020;2024-01-15T01:43:30;3.07;77.70
79497;SHT31;75160;53.138;18.020;2024-01-15T01:44:32;3.06;77.78
79497;SHT31;75160;53.138;18.020;2024-01-15T01:45:35;3.07;77.78
79497;SHT31;75160;53.138;18.020;2024-01-15T01:46:36;3.07;77.75
79497;SHT31;75160;53.138;18.020;2024-01-15T01:47:42;3.08;77.75
79497;SHT31;75160;53.138;18.020;2024-01-15T01:48:44;3.09;77.80
79497;SHT31;75160;53.138;18.020;2024-01-15T01:49:46;3.09;77.78
79497;SHT31;75160;53.138;18.020;2024-01-15T01:50:48;3.11;77.70
79497;SHT31;75160;53.138;18.020;2024-01-15T01:51:49;3.11;77.70
79497;SHT31;75160;53.138;18.020;2024-01-15T01:52:52;3.12;77.70
79497;SHT31;75160;53.138;18.020;2024-01-15T01:53:54;3.13;77.70
79497;SHT31;75160;53.138;18.020;2024-01-15T01:54:56;3.13;77.68
79497;SHT31;75160;53.138;18.020;2024-01-15T01:55:58;3.13;77.63
79497;SHT31;75160;53.138;18.020;2024-01-15T01:57:00;3.12;77.60
79497;SHT31;75160;53.138;18.020;2024-01-15T01:58:05;3.12;77.60
79497;SHT31;75160;53.138;18.020;2024-01-15T01:59:07;3.11;77.60
79497;SHT31;75160;53.138;18.020;2024-01-15T02:00:12;3.11;77.63
79497;SHT31;75160;53.138;18.020;2024-01-15T02:01:15;3.09;77.70
79497;SHT31;75160;53.138;18.020;2024-01-15T02:02:19;3.10;77.70
79497;SHT31;75160;53.138;18.020;2024-01-15T02:03:22;3.07;77.75
79497;SHT31;75160;53.138;18.020;2024-01-15T02:04:24;3.08;77.80
79497;SHT31;75160;53.138;18.020;2024-01-15T02:05:27;3.05;77.78
79497;SHT31;75160;53.138;18.020;2024-01-15T02:06:29;3.07;77.80
79497;SHT31;75160;53.138;18.020;2024-01-15T02:07:34;3.05;77.80
79497;SHT31;75160;53.138;18.020;2024-01-15T02:08:37;3.06;77.80
79497;SHT31;75160;53.138;18.020;2024-01-15T02:09:39;3.06;77.80
79497;SHT31;75160;53.138;18.020;2024-01-15T02:10:42;3.05;77.80
79497;SHT31;75160;53.138;18.020;2024-01-15T02:11:46;3.05;77.80
79497;SHT31;75160;53.138;18.020;2024-01-15T02:12:49;3.05;77.80
79497;SHT31;75160;53.138;18.020;2024-01-15T02:13:51;3.05;77.80
79497;SHT31;75160;53.138;18.020;2024-01-15T02:14:53;3.04;77.80
79497;SHT31;75160;53.138;18.020;2024-01-15T02:15:55;3.02;77.80
79497;SHT31;75160;53.138;18.020;2024-01-15T02:16:56;3.02;77.80
79497;SHT31;75160;53.138;18.020;2024-01-15T02:17:59;3.01;77.80
79497;SHT31;75160;53.138;18.020;2024-01-15T02:19:06;2.98;77.80
79497;SHT31;75160;53.138;18.020;2024-01-15T02:20:08;2.98;77.80
79497;SHT31;75160;53.138;18.020;2024-01-15T02:21:10;2.98;77.80
79497;SHT31;75160;53.138;18.020;2024-01-15T02:22:13;2.98;77.90
79497;SHT31;75160;53.138;18.020;2024-01-15T02:23:15;2.98;77.85
79497;SHT31;75160;53.138;18.020;2024-01-15T02:24:17;2.99;77.80
79497;SHT31;75160;53.138;18.020;2024-01-15T02:25:19;2.99;77.80
79497;SHT31;75160;53.138;18.020;2024-01-15T02:26:21;2.99;77.80
79497;SHT31;75160;53.138;18.020;2024-01-15T02:27:24;2.98;77.72
79497;SHT31;75160;53.138;18.020;2024-01-15T02:28:26;2.98;77.72
79497;SHT31;75160;53.138;18.020;2024-01-15T02:29:28;2.98;77.70
79497;SHT31;75160;53.138;18.020;2024-01-15T02:30:30;2.98;77.70
79497;SHT31;75160;53.138;18.020;2024-01-15T02:31:32;2.97;77.70
79497;SHT31;75160;53.138;18.020;2024-01-15T02:32:34;2.96;77.70
79497;SHT31;75160;53.138;18.020;2024-01-15T02:33:36;2.96;77.70
79497;SHT31;75160;53.138;18.020;2024-01-15T02:34:38;2.96;77.70
79497;SHT31;75160;53.138;18.020;2024-01-15T02:35:40;2.93;77.70
79497;SHT31;75160;53.138;18.020;2024-01-15T02:36:42;2.95;77.70
79497;SHT31;75160;53.138;18.020;2024-01-15T02:37:43;2.94;77.70
79497;SHT31;75160;53.138;18.020;2024-01-15T02:38:45;2.93;77.70
79497;SHT31;75160;53.138;18.020;2024-01-15T02:39:47;2.93;77.63
79497;SHT31;75160;53.138;18.020;2024-01-15T02:40:49;2.92;77.63
79497;SHT31;75160;53.138;18.020;2024-01-15T02:41:51;2.93;77.68
79497;SHT31;75160;53.138;18.020;2024-01-15T02:42:53;2.92;77.70
79497;SHT31;75160;53.138;18.020;2024-01-15T02:43:55;2.91;77.60
79497;SHT31;75160;53.138;18.020;2024-01-15T02:44:56;2.90;77.50
79497;SHT31;75160;53.138;18.020;2024-01-15T02:45:58;2.91;77.57
79497;SHT31;75160;53.138;18.020;2024-01-15T02:47:00;2.92;77.60
79497;SHT31;75160;53.138;18.020;2024-01-15T02:48:02;2.91;77.60
79497;SHT31;75160;53.138;18.020;2024-01-15T02:49:04;2.92;77.60
79497;SHT31;75160;53.138;18.020;2024-01-15T02:50:05;2.91;77.55
79497;SHT31;75160;53.138;18.020;2024-01-15T02:51:08;2.92;77.55
79497;SHT31;75160;53.138;18.020;2024-01-15T02:52:09;2.91;77.50
79497;SHT31;75160;53.138;18.020;2024-01-15T02:53:11;2.92;77.53
79497;SHT31;75160;53.138;18.020;2024-01-15T02:54:13;2.92;77.50
79497;SHT31;75160;53.138;18.020;2024-01-15T02:55:15;2.93;77.53
79497;SHT31;75160;53.138;18.020;2024-01-15T02:56:17;2.95;77.57
79497;SHT31;75160;53.138;18.020;2024-01-15T02:57:18;2.95;77.47
79497;SHT31;75160;53.138;18.020;2024-01-15T02:58:21;2.94;77.43
79497;SHT31;75160;53.138;18.020;2024-01-15T02:59:23;2.95;77.43
79497;SHT31;75160;53.138;18.020;2024-01-15T03:00:25;2.95;77.43
79497;SHT31;75160;53.138;18.020;2024-01-15T03:01:26;2.95;77.43
79497;SHT31;75160;53.138;18.020;2024-01-15T03:02:28;2.94;77.47
79497;SHT31;75160;53.138;18.020;2024-01-15T03:03:32;2.95;77.43
79497;SHT31;75160;53.138;18.020;2024-01-15T03:04:34;2.94;77.50
79497;SHT31;75160;53.138;18.020;2024-01-15T03:05:36;2.96;77.50
79497;SHT31;75160;53.138;18.020;2024-01-15T03:06:38;2.95;77.55
79497;SHT31;75160;53.138;18.020;2024-01-15T03:07:39;2.96;77.53
79497;SHT31;75160;53.138;18.020;2024-01-15T03:08:41;2.96;77.50
79497;SHT31;75160;53.138;18.020;2024-01-15T03:09:43;2.95;77.50
79497;SHT31;75160;53.138;18.020;2024-01-15T03:10:45;2.97;77.55
79497;SHT31;75160;53.138;18.020;2024-01-15T03:11:47;2.97;77.55
79497;SHT31;75160;53.138;18.020;2024-01-15T03:12:49;2.97;77.57
79497;SHT31;75160;53.138;18.020;2024-01-15T03:13:51;2.97;77.50
79497;SHT31;75160;53.138;18.020;2024-01-15T03:14:53;2.97;77.53
79497;SHT31;75160;53.138;18.020;2024-01-15T03:15:55;2.96;77.57
79497;SHT31;75160;53.138;18.020;2024-01-15T03:16:57;2.97;77.57
79497;SHT31;75160;53.138;18.020;2024-01-15T03:17:58;2.98;77.60
79497;SHT31;75160;53.138;18.020;2024-01-15T03:19:01;2.96;77.60
79497;SHT31;75160;53.138;18.020;2024-01-15T03:20:02;2.98;77.60
79497;SHT31;75160;53.138;18.020;2024-01-15T03:21:05;2.97;77.60
79497;SHT31;75160;53.138;18.020;2024-01-15T03:22:07;2.97;77.65
79497;SHT31;75160;53.138;18.020;2024-01-15T03:23:10;2.98;77.70
79497;SHT31;75160;53.138;18.020;2024-01-15T03:24:11;2.98;77.72
79497;SHT31;75160;53.138;18.020;2024-01-15T03:25:13;2.98;77.70
79497;SHT31;75160;53.138;18.020;2024-01-15T03:26:15;2.98;77.70
79497;SHT31;75160;53.138;18.020;2024-01-15T03:27:17;2.98;77.72
79497;SHT31;75160;53.138;18.020;2024-01-15T03:28:18;2.98;77.70
79497;SHT31;75160;53.138;18.020;2024-01-15T03:29:20;2.98;77.70
79497;SHT31;75160;53.138;18.020;2024-01-15T03:30:23;2.97;77.75
79497;SHT31;75160;53.138;18.020;2024-01-15T03:31:24;2.97;77.78
79497;SHT31;75160;53.138;18.020;2024-01-15T03:32:26;2.97;77.78
79497;SHT31;75160;53.138;18.020;2024-01-15T03:33:28;2.97;77.82
79497;SHT31;75160;53.138;18.020;2024-01-15T03:34:30;2.97;77.90
79497;SHT31;75160;53.138;18.020;2024-01-15T03:35:32;2.98;77.90
79497;SHT31;75160;53.138;18.020;2024-01-15T03:36:33;2.96;77.88
79497;SHT31;75160;53.138;18.020;2024-01-15T03:37:35;2.96;77.82
79497;SHT31;75160;53.138;18.020;2024-01-15T03:38:40;2.94;77.90
79497;SHT31;75160;53.138;18.020;2024-01-15T03:39:43;2.93;77.95
79497;SHT31;75160;53.138;18.020;2024-01-15T03:40:44;2.92;77.95
79497;SHT31;75160;53.138;18.020;2024-01-15T03:41:46;2.92;78.00
79497;SHT31;75160;53.138;18.020;2024-01-15T03:42:51;2.92;78.00
79497;SHT31;75160;53.138;18.020;2024-01-15T03:43:55;2.91;78.07
79497;SHT31;75160;53.138;18.020;2024-01-15T03:44:57;2.91;78.00
79497;SHT31;75160;53.138;18.020;2024-01-15T03:45:59;2.90;78.03
79497;SHT31;75160;53.138;18.020;2024-01-15T03:47:01;2.90;78.05
79497;SHT31;75160;53.138;18.020;2024-01-15T03:48:03;2.90;78.07
79497;SHT31;75160;53.138;18.020;2024-01-15T03:49:05;2.90;78.10
79497;SHT31;75160;53.138;18.020;2024-01-15T03:50:07;2.89;78.10
79497;SHT31;75160;53.138;18.020;2024-01-15T03:51:09;2.89;78.10
79497;SHT31;75160;53.138;18.020;2024-01-15T03:52:11;2.88;78.18
79497;SHT31;75160;53.138;18.020;2024-01-15T03:53:13;2.87;78.20
79497;SHT31;75160;53.138;18.020;2024-01-15T03:54:15;2.87;78.20
79497;SHT31;75160;53.138;18.020;2024-01-15T03:55:17;2.88;78.25
79497;SHT31;75160;53.138;18.020;2024-01-15T03:56:18;2.88;78.28
79497;SHT31;75160;53.138;18.020;2024-01-15T03:57:20;2.88;78.30
79497;SHT31;75160;53.138;18.020;2024-01-15T03:58:22;2.88;78.30
79497;SHT31;75160;53.138;18.020;2024-01-15T03:59:24;2.88;78.30
79497;SHT31;75160;53.138;18.020;2024-01-15T04:00:26;2.87;78.30
79497;SHT31;75160;53.138;18.020;2024-01-15T04:01:27;2.87;78.30
79497;SHT31;75160;53.138;18.020;2024-01-15T04:02:29;2.88;78.32
79497;SHT31;75160;53.138;18.020;2024-01-15T04:03:31;2.89;78.32
79497;SHT31;75160;53.138;18.020;2024-01-15T04:04:33;2.88;78.35
79497;SHT31;75160;53.138;18.020;2024-01-15T04:05:34;2.87;78.28
79497;SHT31;75160;53.138;18.020;2024-01-15T04:06:36;2.87;78.30
79497;SHT31;75160;53.138;18.020;2024-01-15T04:07:38;2.84;78.32
79497;SHT31;75160;53.138;18.020;2024-01-15T04:08:40;2.83;78.40
79497;SHT31;75160;53.138;18.020;2024-01-15T04:09:41;2.83;78.43
79497;SHT31;75160;53.138;18.020;2024-01-15T04:10:43;2.81;78.47
79497;SHT31;75160;53.138;18.020;2024-01-15T04:11:45;2.77;78.50
79497;SHT31;75160;53.138;18.020;2024-01-15T04:12:47;2.77;78.50
79497;SHT31;75160;53.138;18.020;2024-01-15T04:13:48;2.77;78.55
79497;SHT31;75160;53.138;18.020;2024-01-15T04:14:50;2.77;78.57
79497;SHT31;75160;53.138;18.020;2024-01-15T04:15:52;2.75;78.60
79497;SHT31;75160;53.138;18.020;2024-01-15T04:16:54;2.72;78.63
79497;SHT31;75160;53.138;18.020;2024-01-15T04:17:55;2.73;78.63
79497;SHT31;75160;53.138;18.020;2024-01-15T04:18:57;2.72;78.65
79497;SHT31;75160;53.138;18.020;2024-01-15T04:19:59;2.74;78.70
79497;SHT31;75160;53.138;18.020;2024-01-15T04:21:03;2.73;78.70
79497;SHT31;75160;53.138;18.020;2024-01-15T04:22:07;2.73;78.72
79497;SHT31;75160;53.138;18.020;2024-01-15T04:23:09;2.71;78.70
79497;SHT31;75160;53.138;18.020;2024-01-15T04:24:11;2.72;78.70
79497;SHT31;75160;53.138;18.020;2024-01-15T04:25:12;2.73;78.70
79497;SHT31;75160;53.138;18.020;2024-01-15T04:26:14;2.72;78.68
79497;SHT31;75160;53.138;18.020;2024-01-15T04:27:16;2.72;78.55
79497;SHT31;75160;53.138;18.020;2024-01-15T04:28:18;2.69;78.50
79497;SHT31;75160;53.138;18.020;2024-01-15T04:29:19;2.67;78.47
79497;SHT31;75160;53.138;18.020;2024-01-15T04:30:21;2.65;78.50
79497;SHT31;75160;53.138;18.020;2024-01-15T04:31:24;2.62;78.50
79497;SHT31;75160;53.138;18.020;2024-01-15T04:32:28;2.61;78.43
79497;SHT31;75160;53.138;18.020;2024-01-15T04:33:29;2.62;78.30
79497;SHT31;75160;53.138;18.020;2024-01-15T04:34:31;2.60;78.05
79497;SHT31;75160;53.138;18.020;2024-01-15T04:35:33;2.58;77.85
79497;SHT31;75160;53.138;18.020;2024-01-15T04:36:39;2.58;77.68
79497;SHT31;75160;53.138;18.020;2024-01-15T04:37:42;2.58;77.45
79497;SHT31;75160;53.138;18.020;2024-01-15T04:38:44;2.58;77.28
79497;SHT31;75160;53.138;18.020;2024-01-15T04:39:46;2.58;77.28
79497;SHT31;75160;53.138;18.020;2024-01-15T04:40:47;2.58;77.32
79497;SHT31;75160;53.138;18.020;2024-01-15T04:41:49;2.59;77.40
79497;SHT31;75160;53.138;18.020;2024-01-15T04:42:51;2.60;77.35
79497;SHT31;75160;53.138;18.020;2024-01-15T04:43:53;2.59;77.25
79497;SHT31;75160;53.138;18.020;2024-01-15T04:44:55;2.59;77.10
79497;SHT31;75160;53.138;18.020;2024-01-15T04:45:56;2.58;77.10
79497;SHT31;75160;53.138;18.020;2024-01-15T04:46:58;2.56;77.22
79497;SHT31;75160;53.138;18.020;2024-01-15T04:48:00;2.56;77.32
79497;SHT31;75160;53.138;18.020;2024-01-15T04:49:03;2.55;77.38
79497;SHT31;75160;53.138;18.020;2024-01-15T04:50:05;2.56;77.40
79497;SHT31;75160;53.138;18.020;2024-01-15T04:51:08;2.55;77.40
79497;SHT31;75160;53.138;18.020;2024-01-15T04:52:10;2.53;77.50
79497;SHT31;75160;53.138;18.020;2024-01-15T04:53:12;2.54;77.50
79497;SHT31;75160;53.138;18.020;2024-01-15T04:54:14;2.54;77.60
79497;SHT31;75160;53.138;18.020;2024-01-15T04:55:19;2.54;77.68
79497;SHT31;75160;53.138;18.020;2024-01-15T04:56:21;2.54;77.70
79497;SHT31;75160;53.138;18.020;2024-01-15T04:57:22;2.55;77.72
79497;SHT31;75160;53.138;18.020;2024-01-15T04:58:24;2.55;77.80
79497;SHT31;75160;53.138;18.020;2024-01-15T04:59:28;2.54;77.75
79497;SHT31;75160;53.138;18.020;2024-01-15T05:00:30;2.55;77.75
79497;SHT31;75160;53.138;18.020;2024-01-15T05:01:32;2.54;77.78
79497;SHT31;75160;53.138;18.020;2024-01-15T05:02:34;2.57;77.80
79497;SHT31;75160;53.138;18.020;2024-01-15T05:03:36;2.57;77.78
79497;SHT31;75160;53.138;18.020;2024-01-15T05:04:38;2.56;77.68
79497;SHT31;75160;53.138;18.020;2024-01-15T05:05:39;2.56;77.60
79497;SHT31;75160;53.138;18.020;2024-01-15T05:06:41;2.56;77.47
79497;SHT31;75160;53.138;18.020;2024-01-15T05:07:43;2.54;77.45
79497;SHT31;75160;53.138;18.020;2024-01-15T05:08:44;2.53;77.28
79497;SHT31;75160;53.138;18.020;2024-01-15T05:09:46;2.50;77.15
79497;SHT31;75160;53.138;18.020;2024-01-15T05:10:48;2.49;77.10
79497;SHT31;75160;53.138;18.020;2024-01-15T05:11:50;2.46;77.15
79497;SHT31;75160;53.138;18.020;2024-01-15T05:12:52;2.45;77.13
79497;SHT31;75160;53.138;18.020;2024-01-15T05:13:53;2.42;76.90
79497;SHT31;75160;53.138;18.020;2024-01-15T05:16:25;2.41;76.95
79497;SHT31;75160;53.138;18.020;2024-01-15T05:17:27;2.39;76.85
79497;SHT31;75160;53.138;18.020;2024-01-15T05:18:29;2.37;76.72
79497;SHT31;75160;53.138;18.020;2024-01-15T05:19:31;2.37;76.68
79497;SHT31;75160;53.138;18.020;2024-01-15T05:20:32;2.34;76.57
79497;SHT31;75160;53.138;18.020;2024-01-15T05:21:34;2.32;76.55
79497;SHT31;75160;53.138;18.020;2024-01-15T05:22:36;2.28;76.57
79497;SHT31;75160;53.138;18.020;2024-01-15T05:23:38;2.28;76.60
79497;SHT31;75160;53.138;18.020;2024-01-15T05:24:40;2.26;76.60
79497;SHT31;75160;53.138;18.020;2024-01-15T05:25:41;2.23;76.63
79497;SHT31;75160;53.138;18.020;2024-01-15T05:26:43;2.18;76.53
79497;SHT31;75160;53.138;18.020;2024-01-15T05:27:45;2.16;76.57
79497;SHT31;75160;53.138;18.020;2024-01-15T05:28:47;2.14;76.60
79497;SHT31;75160;53.138;18.020;2024-01-15T05:29:49;2.11;76.60
79497;SHT31;75160;53.138;18.020;2024-01-15T05:30:51;2.10;76.55
79497;SHT31;75160;53.138;18.020;2024-01-15T05:31:53;2.08;76.50
79497;SHT31;75160;53.138;18.020;2024-01-15T05:32:55;2.08;76.50
79497;SHT31;75160;53.138;18.020;2024-01-15T05:33:57;2.09;76.55
79497;SHT31;75160;53.138;18.020;2024-01-15T05:34:59;2.09;76.63
79497;SHT31;75160;53.138;18.020;2024-01-15T05:36:00;2.08;76.60
79497;SHT31;75160;53.138;18.020;2024-01-15T05:37:03;2.10;76.68
79497;SHT31;75160;53.138;18.020;2024-01-15T05:38:05;2.13;76.57
79497;SHT31;75160;53.138;18.020;2024-01-15T05:39:07;2.11;76.43
79497;SHT31;75160;53.138;18.020;2024-01-15T05:40:09;2.12;76.30
79497;SHT31;75160;53.138;18.020;2024-01-15T05:41:11;2.12;76.38
79497;SHT31;75160;53.138;18.020;2024-01-15T05:42:13;2.11;76.40
79497;SHT31;75160;53.138;18.020;2024-01-15T05:43:15;2.10;76.45
79497;SHT31;75160;53.138;18.020;2024-01-15T05:44:16;2.10;76.47
79497;SHT31;75160;53.138;18.020;2024-01-15T05:45:18;2.09;76.50
79497;SHT31;75160;53.138;18.020;2024-01-15T05:46:20;2.10;76.60
79497;SHT31;75160;53.138;18.020;2024-01-15T05:47:21;2.10;76.60
79497;SHT31;75160;53.138;18.020;2024-01-15T05:48:23;2.12;76.60
79497;SHT31;75160;53.138;18.020;2024-01-15T05:49:25;2.12;76.45
79497;SHT31;75160;53.138;18.020;2024-01-15T05:50:27;2.12;76.50
79497;SHT31;75160;53.138;18.020;2024-01-15T05:51:28;2.13;76.43
79497;SHT31;75160;53.138;18.020;2024-01-15T05:52:30;2.11;76.38
79497;SHT31;75160;53.138;18.020;2024-01-15T05:53:32;2.13;76.28
79497;SHT31;75160;53.138;18.020;2024-01-15T05:54:33;2.12;76.25
79497;SHT31;75160;53.138;18.020;2024-01-15T05:55:36;2.10;76.20
79497;SHT31;75160;53.138;18.020;2024-01-15T05:56:39;2.09;76.28
79497;SHT31;75160;53.138;18.020;2024-01-15T05:57:41;2.09;76.30
79497;SHT31;75160;53.138;18.020;2024-01-15T05:58:43;2.08;76.35
79497;SHT31;75160;53.138;18.020;2024-01-15T05:59:44;2.09;76.40
79497;SHT31;75160;53.138;18.020;2024-01-15T06:00:46;2.06;76.40
79497;SHT31;75160;53.138;18.020;2024-01-15T06:01:49;2.06;76.25
79497;SHT31;75160;53.138;18.020;2024-01-15T06:02:51;2.05;76.25
79497;SHT31;75160;53.138;18.020;2024-01-15T06:03:53;2.05;76.32
79497;SHT31;75160;53.138;18.020;2024-01-15T06:04:54;2.07;76.40
79497;SHT31;75160;53.138;18.020;2024-01-15T06:05:56;2.08;76.47
79497;SHT31;75160;53.138;18.020;2024-01-15T06:06:58;2.09;76.47
79497;SHT31;75160;53.138;18.020;2024-01-15T06:08:00;2.10;76.40
79497;SHT31;75160;53.138;18.020;2024-01-15T06:09:02;2.11;76.40
79497;SHT31;75160;53.138;18.020;2024-01-15T06:10:06;2.12;76.43
79497;SHT31;75160;53.138;18.020;2024-01-15T06:11:09;2.14;76.47
79497;SHT31;75160;53.138;18.020;2024-01-15T06:12:11;2.13;76.47
79497;SHT31;75160;53.138;18.020;2024-01-15T06:13:14;2.14;76.50
79497;SHT31;75160;53.138;18.020;2024-01-15T06:14:16;2.14;76.60
79497;SHT31;75160;53.138;18.020;2024-01-15T06:15:18;2.14;76.65
79497;SHT31;75160;53.138;18.020;2024-01-15T06:16:19;2.16;76.75
79497;SHT31;75160;53.138;18.020;2024-01-15T06:17:23;2.15;76.80
79497;SHT31;75160;53.138;18.020;2024-01-15T06:18:24;2.16;76.80
79497;SHT31;75160;53.138;18.020;2024-01-15T06:19:26;2.16;76.82
79497;SHT31;75160;53.138;18.020;2024-01-15T06:20:28;2.16;76.90
79497;SHT31;75160;53.138;18.020;2024-01-15T06:21:30;2.15;76.90
79497;SHT31;75160;53.138;18.020;2024-01-15T06:22:31;2.16;76.90
79497;SHT31;75160;53.138;18.020;2024-01-15T06:23:33;2.17;76.90
79497;SHT31;75160;53.138;18.020;2024-01-15T06:24:35;2.15;76.95
79497;SHT31;75160;53.138;18.020;2024-01-15T06:25:37;2.14;77.00
79497;SHT31;75160;53.138;18.020;2024-01-15T06:26:38;2.14;77.03
79497;SHT31;75160;53.138;18.020;2024-01-15T06:27:40;2.13;77.10
79497;SHT31;75160;53.138;18.020;2024-01-15T06:28:42;2.15;77.10
79497;SHT31;75160;53.138;18.020;2024-01-15T06:29:44;2.15;77.10
79497;SHT31;75160;53.138;18.020;2024-01-15T06:30:50;2.16;77.10
79497;SHT31;75160;53.138;18.020;2024-01-15T06:31:52;2.15;77.05
79497;SHT31;75160;53.138;18.020;2024-01-15T06:32:53;2.16;77.00
79497;SHT31;75160;53.138;18.020;2024-01-15T06:33:55;2.17;76.93